Time;durP1;ratioP1;P1;durP2;ratioP2;P2;SDS_P1;SDS_P2;PMS_P1;PMS_P2;Temp;Humidity;BMP_temperature;BMP_pressure;BME280_temperature;BME280_humidity;BME280_pressure;Samples;Min_cycle;Max_cycle;Signal;HPM_P1;HPM_P2
2023/09/06 00:00:14;;;;;;;2.55;1.20;;;;;;;18.00;100.00;101178.84;5275004;28;20111;-74
2023/09/06 00:02:46;;;;;;;2.70;1.40;;;;;;;17.77;100.00;101179.25;5288897;27;20066;-74
2023/09/06 00:05:16;;;;;;;2.65;1.40;;;;;;;17.74;100.00;101179.41;5273557;28;20024;-74
2023/09/06 00:07:46;;;;;;;2.00;1.38;;;;;;;17.70;100.00;101185.81;5271129;27;20642;-73
2023/09/06 00:10:17;;;;;;;2.88;1.30;;;;;;;17.68;100.00;101188.53;5293928;27;20411;-73
2023/09/06 00:12:47;;;;;;;3.15;1.30;;;;;;;17.61;100.00;101181.88;5273942;27;20419;-73
2023/09/06 00:15:18;;;;;;;2.20;1.40;;;;;;;17.65;100.00;101179.94;5289704;27;20027;-73
2023/09/06 00:17:48;;;;;;;5.22;1.58;;;;;;;17.54;100.00;101182.31;5288812;27;20027;-74
2023/09/06 00:20:20;;;;;;;2.67;1.38;;;;;;;17.63;100.00;101185.28;5285018;27;20030;-74
2023/09/06 00:22:58;;;;;;;2.90;1.30;;;;;;;18.00;100.00;101178.84;5284510;27;20027;-73
2023/09/06 00:25:31;;;;;;;2.30;1.35;;;;;;;17.84;100.00;101185.91;5289469;27;20039;-73
2023/09/06 00:28:04;;;;;;;3.28;1.35;;;;;;;18.00;100.00;101178.84;5286984;28;20150;-73
2023/09/06 00:30:35;;;;;;;3.33;1.67;;;;;;;17.74;100.00;101188.22;5276769;28;20411;-73
2023/09/06 00:33:07;;;;;;;2.92;1.40;;;;;;;17.57;100.00;101180.34;5286141;28;20229;-73
2023/09/06 00:35:41;;;;;;;5.55;1.40;;;;;;;17.61;100.00;101183.66;5272712;28;20023;-73
2023/09/06 00:38:21;;;;;;;3.67;1.50;;;;;;;17.49;100.00;101181.72;5291592;28;20031;-73
2023/09/06 00:40:51;;;;;;;2.53;1.42;;;;;;;17.57;100.00;101184.78;5287919;28;20023;-73
2023/09/06 00:43:21;;;;;;;3.92;1.55;;;;;;;17.37;100.00;101187.66;5271540;28;20042;-73
2023/09/06 00:45:53;;;;;;;3.10;1.58;;;;;;;17.43;100.00;101182.88;5283883;28;20019;-73
2023/09/06 00:48:26;;;;;;;4.15;1.40;;;;;;;17.25;100.00;101196.19;5291236;28;20484;-73
2023/09/06 00:50:57;;;;;;;5.10;1.50;;;;;;;17.20;100.00;101192.94;5273227;28;20029;-74
2023/09/06 00:53:27;;;;;;;2.17;1.33;;;;;;;17.28;100.00;101188.13;5279936;28;20023;-73
2023/09/06 00:55:59;;;;;;;2.88;1.45;;;;;;;17.25;100.00;101193.53;5269642;28;20024;-73
2023/09/06 00:58:29;;;;;;;1.67;1.20;;;;;;;17.26;100.00;101188.19;5286230;28;20472;-72
2023/09/06 01:01:00;;;;;;;62.17;28.83;;;;;;;17.11;100.00;101190.78;5283508;28;20039;-73
2023/09/06 01:03:30;;;;;;;40.05;19.15;;;;;;;17.11;100.00;101186.34;5289526;28;20029;-73
2023/09/06 01:06:08;;;;;;;4.82;2.70;;;;;;;16.91;100.00;101181.25;5281884;28;20055;-73
2023/09/06 01:08:45;;;;;;;3.42;1.90;;;;;;;16.79;100.00;101183.69;5265142;28;20051;-73
2023/09/06 01:11:21;;;;;;;3.13;1.50;;;;;;;16.86;100.00;101180.66;5268586;28;20058;-73
2023/09/06 01:13:58;;;;;;;3.28;1.40;;;;;;;16.94;100.00;101178.44;5287832;28;20051;-73
2023/09/06 01:16:38;;;;;;;4.75;1.60;;;;;;;16.66;100.00;101187.88;5275073;28;20027;-72
2023/09/06 01:19:11;;;;;;;2.30;1.33;;;;;;;16.71;100.00;101188.47;5286273;28;20039;-73
2023/09/06 01:21:49;;;;;;;4.07;1.50;;;;;;;16.68;100.00;101186.00;5273304;28;20084;-73
2023/09/06 01:24:21;;;;;;;2.05;1.13;;;;;;;16.62;100.00;101193.38;5289377;28;20252;-73
2023/09/06 01:26:52;;;;;;;2.83;1.50;;;;;;;16.52;100.00;101195.63;5289179;28;20280;-73
2023/09/06 01:29:23;;;;;;;4.20;1.60;;;;;;;16.57;100.00;101193.59;5288812;28;20024;-73
2023/09/06 01:31:53;;;;;;;3.30;1.73;;;;;;;16.37;100.00;101191.09;5268541;28;20045;-73
2023/09/06 01:34:23;;;;;;;2.55;1.33;;;;;;;16.53;100.00;101191.22;5274477;27;20301;-73
2023/09/06 01:36:54;;;;;;;2.78;1.55;;;;;;;16.42;100.00;101186.44;5277091;27;20035;-73
2023/09/06 01:39:24;;;;;;;4.43;1.63;;;;;;;16.36;100.00;101184.13;5291499;27;20076;-73
2023/09/06 01:41:54;;;;;;;2.88;1.27;;;;;;;16.50;100.00;101189.56;5291704;27;20073;-73
2023/09/06 01:44:26;;;;;;;2.63;1.45;;;;;;;16.49;100.00;101187.88;5289353;27;20566;-73
2023/09/06 01:46:57;;;;;;;3.45;1.58;;;;;;;16.28;100.00;101185.41;5276595;27;20072;-73
2023/09/06 01:49:27;;;;;;;3.33;1.70;;;;;;;16.27;100.00;101188.97;5293966;27;20023;-73
2023/09/06 01:52:01;;;;;;;3.08;1.58;;;;;;;16.36;100.00;101189.41;5287386;27;20549;-73
2023/09/06 01:54:31;;;;;;;4.90;1.83;;;;;;;16.29;100.00;101187.09;5292453;27;20019;-73
2023/09/06 01:57:01;;;;;;;2.28;1.50;;;;;;;16.41;100.00;101191.81;5289666;27;20020;-73
2023/09/06 01:59:32;;;;;;;2.85;1.65;;;;;;;16.42;100.00;101189.09;5293373;27;20023;-73
2023/09/06 02:02:04;;;;;;;2.17;1.30;;;;;;;16.38;100.00;101190.16;5289415;27;20425;-73
2023/09/06 02:04:34;;;;;;;5.05;1.88;;;;;;;16.26;100.00;101197.81;5286952;27;20183;-73
2023/09/06 02:07:04;;;;;;;3.10;1.58;;;;;;;16.26;100.00;101193.41;5275582;28;20555;-73
2023/09/06 02:09:35;;;;;;;3.25;1.85;;;;;;;16.32;100.00;101190.44;5293353;27;20032;-73
2023/09/06 02:12:05;;;;;;;5.32;1.48;;;;;;;16.14;100.00;101198.41;5288895;27;20110;-73
2023/09/06 02:14:36;;;;;;;2.58;1.40;;;;;;;16.14;100.00;101187.84;5291651;27;20020;-74
2023/09/06 02:17:06;;;;;;;1.70;1.40;;;;;;;16.21;100.00;101189.28;5292136;27;20024;-73
2023/09/06 02:19:37;;;;;;;2.40;1.55;;;;;;;16.11;100.00;101188.00;5292222;27;20038;-73
2023/09/06 02:22:07;;;;;;;2.40;1.48;;;;;;;15.96;100.00;101194.88;5289573;27;20526;-73
2023/09/06 02:24:39;;;;;;;2.20;1.48;;;;;;;15.78;100.00;101189.59;5289636;27;20027;-73
2023/09/06 02:27:12;;;;;;;2.97;1.23;;;;;;;15.88;100.00;101191.72;5270464;27;20484;-73
2023/09/06 02:29:42;;;;;;;2.22;1.40;;;;;;;16.11;100.00;101193.28;5290518;27;20384;-73
2023/09/06 02:32:12;;;;;;;2.15;1.40;;;;;;;16.07;100.00;101207.53;5271579;27;20023;-73
2023/09/06 02:34:43;;;;;;;4.15;1.73;;;;;;;15.99;100.00;101200.00;5290198;27;20012;-73
2023/09/06 02:37:13;;;;;;;2.42;1.42;;;;;;;15.71;100.00;101199.56;5291740;27;20023;-73
2023/09/06 02:39:43;;;;;;;2.92;2.03;;;;;;;15.69;100.00;101198.78;5287965;27;20575;-73
2023/09/06 02:42:14;;;;;;;3.53;1.80;;;;;;;15.60;100.00;101204.50;5291731;27;20053;-73
2023/09/06 02:44:44;;;;;;;3.83;1.52;;;;;;;15.65;100.00;101205.13;5285978;27;20396;-73
2023/09/06 02:47:15;;;;;;;3.03;1.88;;;;;;;15.51;100.00;101204.91;5294931;27;20066;-73
2023/09/06 02:49:45;;;;;;;3.20;1.77;;;;;;;15.47;100.00;101211.25;5290227;27;20160;-73
2023/09/06 02:52:28;;;;;;;2.55;1.60;;;;;;;15.47;100.00;101215.66;5272541;27;20019;-73
2023/09/06 02:54:59;;;;;;;3.05;1.83;;;;;;;15.53;100.00;101203.06;5290260;27;20064;-73
2023/09/06 02:57:30;;;;;;;3.53;1.90;;;;;;;15.58;100.00;101214.25;5291523;27;20050;-73
2023/09/06 03:00:00;;;;;;;2.83;2.00;;;;;;;15.38;100.00;101222.19;5288583;27;20027;-73
2023/09/06 03:02:30;;;;;;;3.50;2.10;;;;;;;15.39;100.00;101223.91;5275485;27;20067;-73
2023/09/06 03:05:04;;;;;;;2.58;1.73;;;;;;;15.42;100.00;101222.91;5290753;27;20064;-73
2023/09/06 03:07:34;;;;;;;4.57;2.20;;;;;;;15.43;100.00;101225.50;5291868;27;20517;-73
2023/09/06 03:10:05;;;;;;;5.55;2.25;;;;;;;15.41;100.00;101222.09;5288638;27;20038;-73
2023/09/06 03:12:35;;;;;;;5.88;2.10;;;;;;;15.21;100.00;101229.94;5290932;27;20061;-73
2023/09/06 03:15:08;;;;;;;3.92;2.10;;;;;;;15.35;100.00;101232.88;5290795;27;20484;-73
2023/09/06 03:17:39;;;;;;;5.15;2.20;;;;;;;15.34;100.00;101232.97;5276094;27;20031;-73
2023/09/06 03:20:32;;;;;;;3.50;2.25;;;;;;;15.29;100.00;101243.69;5271282;28;20035;-73
2023/09/06 03:23:17;;;;;;;4.07;2.35;;;;;;;15.24;100.00;101235.09;5289033;27;20023;-73
2023/09/06 03:25:50;;;;;;;3.47;2.10;;;;;;;15.37;100.00;101236.28;5266761;27;20054;-73
2023/09/06 03:28:21;;;;;;;6.85;2.30;;;;;;;15.41;100.00;101226.47;5269901;27;20507;-73
2023/09/06 03:30:52;;;;;;;2.90;1.95;;;;;;;15.52;100.00;101235.59;5258941;27;20032;-73
2023/09/06 03:33:22;;;;;;;3.97;2.17;;;;;;;15.49;100.00;101241.00;5280901;27;20023;-73
2023/09/06 03:35:52;;;;;;;3.15;2.42;;;;;;;15.50;100.00;101242.72;5289976;27;20385;-72
2023/09/06 03:38:25;;;;;;;4.47;2.63;;;;;;;15.44;100.00;101236.88;5290790;27;20039;-73
2023/09/06 03:40:55;;;;;;;3.72;2.40;;;;;;;15.41;100.00;101245.78;5287403;27;20031;-74
2023/09/06 03:43:32;;;;;;;2.92;2.00;;;;;;;15.57;100.00;101244.16;5288610;27;20027;-73
2023/09/06 03:46:07;;;;;;;3.38;2.10;;;;;;;15.46;100.00;101248.19;5292171;27;20023;-73
2023/09/06 03:48:37;;;;;;;3.60;2.30;;;;;;;15.29;100.00;101253.34;5284927;27;20104;-73
2023/09/06 03:51:07;;;;;;;4.32;2.40;;;;;;;15.15;100.00;101259.19;5272120;28;20774;-74
2023/09/06 03:53:38;;;;;;;3.60;2.03;;;;;;;15.27;100.00;101252.53;5288491;27;20046;-73
2023/09/06 03:56:10;;;;;;;3.00;2.15;;;;;;;15.14;100.00;101260.13;5286870;27;20073;-73
2023/09/06 03:58:41;;;;;;;3.80;2.10;;;;;;;15.22;100.00;101252.72;5287959;27;20091;-73
2023/09/06 04:01:15;;;;;;;5.40;1.85;;;;;;;15.21;100.00;101260.72;5286105;27;20055;-73
2023/09/06 04:03:50;;;;;;;4.97;2.13;;;;;;;15.27;100.00;101263.94;5289533;27;20149;-73
2023/09/06 04:06:20;;;;;;;4.28;2.00;;;;;;;15.30;100.00;101255.94;5290193;27;20076;-73
2023/09/06 04:08:53;;;;;;;3.20;1.80;;;;;;;15.39;100.00;101266.03;5288545;27;20023;-73
2023/09/06 04:11:23;;;;;;;3.35;1.50;;;;;;;15.35;100.00;101263.63;5287490;27;20507;-73
2023/09/06 04:13:55;;;;;;;6.03;1.42;;;;;;;15.40;100.00;101262.50;5288446;27;20050;-73
2023/09/06 04:16:26;;;;;;;4.10;1.67;;;;;;;15.38;100.00;101266.97;5276695;27;20040;-73
2023/09/06 04:18:56;;;;;;;3.20;1.50;;;;;;;15.35;100.00;101263.63;5286033;27;20019;-73
2023/09/06 04:21:27;;;;;;;3.15;1.40;;;;;;;15.39;100.00;101263.41;5273358;28;20015;-73
2023/09/06 04:23:57;;;;;;;2.72;1.73;;;;;;;15.17;100.00;101267.88;5269369;28;20023;-73
2023/09/06 04:26:27;;;;;;;3.55;1.80;;;;;;;14.91;100.00;101268.16;5291506;27;20015;-73
2023/09/06 04:28:57;;;;;;;3.17;1.50;;;;;;;15.05;100.00;101278.94;5288693;28;20100;-73
2023/09/06 04:31:28;;;;;;;6.75;2.08;;;;;;;14.86;100.00;101275.38;5291343;28;20019;-72
2023/09/06 04:34:01;;;;;;;2.60;1.70;;;;;;;14.80;100.00;101273.94;5289128;28;20027;-73
2023/09/06 04:36:36;;;;;;;3.30;1.98;;;;;;;14.81;100.00;101270.38;5276624;28;20103;-73
2023/09/06 04:39:07;;;;;;;2.95;1.52;;;;;;;14.98;100.00;101269.59;5272811;28;20028;-73
2023/09/06 04:41:38;;;;;;;3.10;1.80;;;;;;;15.00;100.00;101266.91;5285965;28;20042;-73
2023/09/06 04:44:10;;;;;;;3.45;2.03;;;;;;;15.03;100.00;101267.63;5285025;28;20027;-73
2023/09/06 04:46:40;;;;;;;3.53;1.73;;;;;;;15.18;100.00;101272.22;5276998;28;20019;-73
2023/09/06 04:49:10;;;;;;;2.33;1.60;;;;;;;15.27;100.00;101270.97;5267649;28;20080;-73
2023/09/06 04:51:41;;;;;;;3.33;2.00;;;;;;;15.22;100.00;101265.91;5275254;28;20031;-73
2023/09/06 04:54:11;;;;;;;4.03;2.08;;;;;;;14.99;100.00;101270.47;5289447;28;20062;-73
2023/09/06 04:56:42;;;;;;;4.95;2.25;;;;;;;14.95;100.00;101275.00;5285501;28;20053;-74
2023/09/06 04:59:12;;;;;;;5.00;2.38;;;;;;;14.82;100.00;101267.69;5287501;28;20035;-73
2023/09/06 05:01:42;;;;;;;3.67;2.22;;;;;;;14.86;100.00;101270.09;5291761;28;20023;-73
2023/09/06 05:04:12;;;;;;;3.20;2.10;;;;;;;15.11;100.00;101265.53;5286854;28;20039;-73
2023/09/06 05:06:43;;;;;;;4.88;2.80;;;;;;;15.15;100.00;101272.38;5288518;28;20027;-73
2023/09/06 05:09:15;;;;;;;6.22;2.78;;;;;;;15.00;100.00;101278.28;5292547;27;20186;-73
2023/09/06 05:11:46;;;;;;;3.30;2.20;;;;;;;14.86;100.00;101277.16;5289163;27;20384;-73
2023/09/06 05:14:16;;;;;;;5.25;2.92;;;;;;;14.90;100.00;101276.97;5292410;27;20038;-73
2023/09/06 05:16:48;;;;;;;4.35;2.70;;;;;;;14.86;100.00;101283.25;5293098;27;20030;-73
2023/09/06 05:19:21;;;;;;;4.05;2.47;;;;;;;14.93;100.00;101287.38;5293026;27;20409;-73
2023/09/06 05:21:51;;;;;;;3.22;2.20;;;;;;;14.97;100.00;101280.19;5273927;27;20019;-73
2023/09/06 05:24:21;;;;;;;3.50;2.50;;;;;;;15.15;100.00;101277.63;5270821;27;20101;-73
2023/09/06 05:26:52;;;;;;;6.65;2.95;;;;;;;15.14;100.00;101275.91;5276008;27;20292;-73
2023/09/06 05:29:23;;;;;;;4.88;2.72;;;;;;;15.20;100.00;101278.28;5270623;27;20179;-73
2023/09/06 05:31:53;;;;;;;8.18;3.15;;;;;;;15.26;100.00;101280.66;5291518;27;20029;-73
2023/09/06 05:34:24;;;;;;;6.45;3.33;;;;;;;15.24;100.00;101279.88;5296412;27;20048;-73
2023/09/06 05:36:54;;;;;;;4.68;3.38;;;;;;;15.31;100.00;101283.09;5294692;27;20265;-73
2023/09/06 05:39:24;;;;;;;5.63;3.60;;;;;;;15.41;100.00;101282.66;5294270;27;20796;-73
2023/09/06 05:41:54;;;;;;;5.07;3.42;;;;;;;15.54;100.00;101290.88;5270763;27;20118;-73
2023/09/06 05:44:25;;;;;;;4.97;3.38;;;;;;;15.74;100.00;101278.50;5271922;27;20023;-73
2023/09/06 05:46:55;;;;;;;5.68;3.50;;;;;;;15.87;100.00;101284.09;5295347;27;20039;-73
2023/09/06 05:49:25;;;;;;;6.40;4.10;;;;;;;16.00;100.00;101286.09;5273279;27;20034;-73
2023/09/06 05:51:56;;;;;;;6.43;4.00;;;;;;;16.07;100.00;101279.59;5270610;27;20485;-73
2023/09/06 05:54:26;;;;;;;5.95;3.97;;;;;;;16.16;100.00;101281.81;5296239;27;20050;-73
2023/09/06 05:56:57;;;;;;;6.32;4.18;;;;;;;16.18;100.00;101279.94;5273814;27;20051;-73
2023/09/06 05:59:27;;;;;;;13.50;4.55;;;;;;;16.33;100.00;101286.28;5278489;27;20365;-72
2023/09/06 06:01:57;;;;;;;8.18;5.07;;;;;;;16.41;100.00;101290.28;5289672;27;20035;-73
2023/09/06 06:04:28;;;;;;;7.82;5.30;;;;;;;16.51;100.00;101290.69;5293575;27;20092;-72
2023/09/06 06:06:58;;;;;;;7.30;4.90;;;;;;;16.66;100.00;101282.91;5274603;27;20062;-73
2023/09/06 06:09:28;;;;;;;8.70;5.32;;;;;;;16.83;100.00;101293.50;5292300;27;20027;-72
2023/09/06 06:11:59;;;;;;;8.00;5.47;;;;;;;17.02;100.00;101291.63;5289409;27;20035;-72
2023/09/06 06:14:30;;;;;;;10.57;5.65;;;;;;;17.09;100.00;101293.03;5295817;27;20034;-72
2023/09/06 06:17:00;;;;;;;10.50;6.00;;;;;;;17.23;100.00;101301.09;5275171;27;20028;-73
2023/09/06 06:19:31;;;;;;;8.93;5.80;;;;;;;17.43;100.00;101293.91;5274434;27;20027;-73
2023/09/06 06:22:02;;;;;;;8.70;5.50;;;;;;;17.58;100.00;101297.50;5288634;27;20024;-72
2023/09/06 06:24:36;;;;;;;8.80;5.97;;;;;;;17.58;100.00;101306.31;5277157;27;20111;-73
2023/09/06 06:27:06;;;;;;;9.50;6.03;;;;;;;17.71;100.00;101304.75;5271386;28;20488;-73
2023/09/06 06:29:36;;;;;;;10.35;6.70;;;;;;;17.86;100.00;101303.91;5294113;27;20050;-73
2023/09/06 06:32:07;;;;;;;9.55;5.88;;;;;;;17.99;100.00;101299.66;5289004;27;20100;-73
2023/09/06 06:34:39;;;;;;;9.15;5.55;;;;;;;18.10;100.00;101302.59;5294597;27;20142;-73
2023/09/06 06:37:09;;;;;;;10.40;6.20;;;;;;;18.18;100.00;101316.22;5278891;27;20421;-73
2023/09/06 06:39:39;;;;;;;9.02;5.97;;;;;;;18.31;100.00;101311.19;5294819;27;20072;-73
2023/09/06 06:42:10;;;;;;;8.35;5.25;;;;;;;18.48;100.00;101319.03;5288286;27;20567;-73
2023/09/06 06:44:47;;;;;;;11.77;6.10;;;;;;;18.63;100.00;101318.13;5290016;27;20027;-73
2023/09/06 06:47:17;;;;;;;11.88;5.50;;;;;;;18.79;100.00;101325.13;5297281;27;20545;-74
2023/09/06 06:49:51;;;;;;;9.20;5.80;;;;;;;18.89;100.00;101327.16;5294661;27;20326;-73
2023/09/06 06:52:22;;;;;;;8.27;5.30;;;;;;;19.07;100.00;101327.91;5291501;27;20106;-74
2023/09/06 06:54:52;;;;;;;8.15;5.65;;;;;;;19.11;100.00;101322.31;5274462;27;20102;-74
2023/09/06 06:57:22;;;;;;;11.93;5.40;;;;;;;19.39;100.00;101330.41;5296048;27;20028;-73
2023/09/06 06:59:53;;;;;;;9.73;4.97;;;;;;;21.69;97.97;101326.84;5292748;27;20260;-73
2023/09/06 07:02:23;;;;;;;6.57;3.88;;;;;;;23.93;86.75;101325.94;5292921;27;20355;-74
2023/09/06 07:04:55;;;;;;;5.53;3.03;;;;;;;25.87;75.32;101326.53;5297293;27;20080;-74
2023/09/06 07:07:25;;;;;;;5.93;2.88;;;;;;;27.35;73.15;101313.78;5297934;27;20277;-74
2023/09/06 07:09:55;;;;;;;7.22;3.42;;;;;;;26.68;73.74;101324.59;5297738;27;20084;-75
2023/09/06 07:12:26;;;;;;;3.43;2.10;;;;;;;29.35;66.40;101308.22;5293133;27;20544;-75
2023/09/06 07:14:56;;;;;;;6.10;2.85;;;;;;;28.35;68.17;101319.31;5293121;27;20269;-75
2023/09/06 07:17:27;;;;;;;4.37;2.63;;;;;;;29.57;63.46;101319.38;5299148;27;20029;-75
2023/09/06 07:19:58;;;;;;;5.20;2.80;;;;;;;30.56;61.73;101321.44;5278327;27;20023;-75
2023/09/06 07:22:28;;;;;;;4.30;2.67;;;;;;;30.90;61.69;101315.81;5297085;27;20082;-74
2023/09/06 07:24:59;;;;;;;5.10;2.27;;;;;;;30.99;60.72;101320.19;5297661;27;20023;-75
2023/09/06 07:27:29;;;;;;;4.70;2.80;;;;;;;29.59;63.70;101322.75;5295866;27;20031;-74
2023/09/06 07:29:59;;;;;;;3.67;1.93;;;;;;;31.92;56.98;101328.66;5292201;27;20031;-74
2023/09/06 07:32:30;;;;;;;4.37;2.17;;;;;;;31.07;61.41;101328.31;5295148;27;20504;-75
2023/09/06 07:35:00;;;;;;;5.70;2.85;;;;;;;29.57;64.40;101332.00;5291820;27;20054;-75
2023/09/06 07:37:30;;;;;;;4.60;2.27;;;;;;;30.81;61.59;101334.00;5286974;27;20020;-74
2023/09/06 07:40:01;;;;;;;6.13;2.20;;;;;;;31.36;59.55;101334.09;5286384;27;20058;-75
2023/09/06 07:42:31;;;;;;;5.35;2.30;;;;;;;30.98;59.92;101331.16;5287497;27;20023;-74
2023/09/06 07:45:01;;;;;;;3.40;2.17;;;;;;;29.82;65.22;101333.84;5291236;27;20472;-74
2023/09/06 07:47:31;;;;;;;5.13;2.80;;;;;;;28.61;65.26;101331.03;5290340;27;20328;-75
2023/09/06 07:50:05;;;;;;;7.33;2.57;;;;;;;31.87;57.70;101324.78;5290609;27;20114;-75
2023/09/06 07:52:37;;;;;;;3.53;2.15;;;;;;;31.68;59.74;101328.69;5290313;27;20168;-75
2023/09/06 07:55:07;;;;;;;6.05;2.55;;;;;;;32.18;57.73;101328.44;5295571;27;20027;-74
2023/09/06 07:57:38;;;;;;;6.38;2.30;;;;;;;31.82;59.50;101324.44;5273460;27;20038;-75
2023/09/06 08:00:08;;;;;;;4.50;2.08;;;;;;;33.21;55.76;101325.19;5280860;27;20034;-75
2023/09/06 08:02:39;;;;;;;5.07;2.55;;;;;;;33.68;54.36;101323.03;5283892;27;20028;-75
2023/09/06 08:05:09;;;;;;;5.75;2.50;;;;;;;32.35;56.10;101324.66;5292017;27;20019;-75
2023/09/06 08:07:41;;;;;;;3.33;1.98;;;;;;;32.12;57.83;101324.53;5278678;27;20519;-74
2023/09/06 08:10:13;;;;;;;7.97;2.60;;;;;;;32.70;56.61;101327.69;5293806;27;20027;-74
2023/09/06 08:12:43;;;;;;;4.82;2.30;;;;;;;34.69;53.87;101322.22;5292100;27;20032;-74
2023/09/06 08:15:13;;;;;;;5.50;2.00;;;;;;;34.34;55.25;101324.91;5288448;27;20113;-75
2023/09/06 08:17:47;;;;;;;4.00;2.17;;;;;;;33.22;55.52;101323.28;5290677;27;20738;-74
2023/09/06 08:20:18;;;;;;;4.00;1.85;;;;;;;33.66;55.74;101332.41;5285360;28;20414;-74
2023/09/06 08:22:48;;;;;;;4.60;1.70;;;;;;;34.68;53.26;101327.84;5285069;27;20023;-75
2023/09/06 08:25:19;;;;;;;3.58;2.08;;;;;;;34.64;53.57;101321.94;5271643;28;20031;-75
2023/09/06 08:27:51;;;;;;;2.97;1.40;;;;;;;35.46;52.18;101319.47;5290186;27;20087;-75
2023/09/06 08:30:21;;;;;;;4.70;1.80;;;;;;;33.15;55.75;101325.03;5289531;28;20027;-75
2023/09/06 08:32:52;;;;;;;3.67;1.80;;;;;;;33.06;55.64;101332.38;5288711;28;20027;-75
2023/09/06 08:35:23;;;;;;;3.10;1.73;;;;;;;34.57;54.15;101321.03;5286775;28;20023;-75
2023/09/06 08:37:53;;;;;;;3.97;1.80;;;;;;;35.50;51.29;101309.03;5276565;28;20038;-75
2023/09/06 08:40:24;;;;;;;3.93;1.67;;;;;;;34.99;53.56;101320.25;5288557;28;20492;-75
2023/09/06 08:42:55;;;;;;;2.75;1.20;;;;;;;37.18;49.60;101309.91;5292418;27;20286;-74
2023/09/06 08:45:26;;;;;;;4.93;1.83;;;;;;;34.01;54.64;101313.53;5291844;27;20026;-74
2023/09/06 08:47:56;;;;;;;3.10;1.60;;;;;;;35.18;53.42;101312.31;5293831;27;20515;-75
2023/09/06 08:50:29;;;;;;;2.67;1.42;;;;;;;33.12;58.02;101309.13;5291675;27;20027;-74
2023/09/06 08:53:01;;;;;;;6.80;1.65;;;;;;;32.63;58.77;101306.88;5275643;28;20436;-74
2023/09/06 08:55:32;;;;;;;6.80;1.48;;;;;;;34.37;55.33;101311.75;5287508;27;20576;-74
2023/09/06 08:58:05;;;;;;;2.40;1.30;;;;;;;33.48;56.62;101321.03;5294033;27;20102;-75
2023/09/06 09:00:38;;;;;;;4.35;1.45;;;;;;;35.22;53.16;101306.28;5287531;27;20369;-75
2023/09/06 09:03:08;;;;;;;4.15;1.30;;;;;;;35.03;53.66;101316.13;5275400;28;20526;-75
2023/09/06 09:05:38;;;;;;;3.30;1.50;;;;;;;35.63;51.69;101318.16;5294739;27;20103;-74
2023/09/06 09:08:09;;;;;;;4.97;1.30;;;;;;;34.09;53.87;101323.47;5301231;27;20415;-75
2023/09/06 09:10:40;;;;;;;3.58;1.58;;;;;;;33.69;54.62;101313.03;5294185;27;20273;-75
2023/09/06 09:13:15;;;;;;;1.90;1.00;;;;;;;35.20;54.50;101319.25;5281982;27;20027;-75
2023/09/06 09:15:45;;;;;;;2.30;1.27;;;;;;;36.84;51.08;101309.19;5294275;27;20015;-73
2023/09/06 09:18:15;;;;;;;2.97;1.60;;;;;;;34.02;56.43;101319.81;5294815;27;20095;-73
2023/09/06 09:20:46;;;;;;;2.87;1.20;;;;;;;34.89;55.69;101317.00;5276224;27;20019;-73
2023/09/06 09:23:16;;;;;;;7.80;1.40;;;;;;;33.91;57.40;101323.84;5292881;27;20034;-73
2023/09/06 09:25:50;;;;;;;1.50;1.20;;;;;;;33.30;56.80;101324.06;5293298;27;21531;-72
2023/09/06 09:28:21;;;;;;;3.42;1.38;;;;;;;33.00;57.49;101322.22;5279950;27;20491;-72
2023/09/06 09:30:51;;;;;;;6.70;1.40;;;;;;;31.31;60.34;101325.66;5293800;27;20023;-72
2023/09/06 09:33:26;;;;;;;3.60;1.58;;;;;;;31.37;61.59;101316.03;5291517;27;20084;-72
2023/09/06 09:35:57;;;;;;;;;;;;;;;31.23;61.39;101317.53;5294969;27;20019;-72
2023/09/06 09:38:27;;;;;;;2.63;1.43;;;;;;;31.16;62.29;101319.22;5293012;27;19911;-71
2023/09/06 09:41:08;;;;;;;2.47;1.30;;;;;;;30.37;62.96;101319.00;5278932;27;20271;-71
2023/09/06 09:43:39;;;;;;;3.30;1.20;;;;;;;30.21;65.10;101314.38;5271293;27;20024;-72
2023/09/06 09:46:09;;;;;;;2.22;1.20;;;;;;;30.27;61.92;101313.72;5278998;27;20400;-72
2023/09/06 09:48:41;;;;;;;1.80;1.13;;;;;;;30.17;63.55;101306.78;5280871;27;20016;-73
2023/09/06 09:51:16;;;;;;;3.42;1.33;;;;;;;30.23;62.22;101306.13;5293894;27;20038;-73
2023/09/06 09:53:46;;;;;;;2.60;1.33;;;;;;;29.95;60.19;101307.31;5291432;27;20055;-74
2023/09/06 09:56:21;;;;;;;2.53;1.30;;;;;;;29.68;61.97;101304.78;5291271;27;20058;-74
2023/09/06 09:58:54;;;;;;;2.17;1.20;;;;;;;30.11;62.59;101313.66;5276474;27;20292;-73
2023/09/06 10:01:27;;;;;;;3.85;1.10;;;;;;;30.09;61.63;101310.28;5291046;27;20062;-74
2023/09/06 10:03:59;;;;;;;3.35;1.40;;;;;;;29.91;63.15;101300.56;5279573;27;20157;-73
2023/09/06 10:06:32;;;;;;;5.22;1.10;;;;;;;29.90;61.90;101293.47;5292574;27;20023;-73
2023/09/06 10:09:08;;;;;;;2.53;1.10;;;;;;;29.81;62.42;101289.03;5294816;27;20227;-74
2023/09/06 10:11:41;;;;;;;3.47;1.10;;;;;;;29.76;61.38;101285.97;5290533;27;20042;-73
2023/09/06 10:14:14;;;;;;;2.67;1.27;;;;;;;29.73;59.31;101291.69;5295832;27;20027;-74
2023/09/06 10:16:48;;;;;;;4.00;1.40;;;;;;;29.69;61.92;101290.28;5291342;27;20015;-74
2023/09/06 10:19:20;;;;;;;1.38;0.95;;;;;;;29.30;60.47;101284.47;5296478;27;20031;-74
2023/09/06 10:21:50;;;;;;;5.97;0.95;;;;;;;29.30;61.60;101283.59;5290026;27;20023;-74
2023/09/06 10:24:22;;;;;;;5.03;1.30;;;;;;;29.38;61.44;101280.97;5289661;27;20034;-74
2023/09/06 10:26:54;;;;;;;3.70;1.20;;;;;;;29.44;60.95;101281.16;5291874;27;20022;-74
2023/09/06 10:29:28;;;;;;;5.57;1.10;;;;;;;29.39;62.86;101282.66;5291165;27;20403;-74
2023/09/06 10:32:06;;;;;;;1.45;1.05;;;;;;;29.74;62.15;101272.63;5290888;27;20265;-74
2023/09/06 10:34:45;;;;;;;1.88;0.90;;;;;;;29.60;60.06;101280.47;5274412;27;20491;-74
2023/09/06 10:37:15;;;;;;;2.42;1.30;;;;;;;29.71;61.22;101277.53;5294962;27;20023;-73
2023/09/06 10:39:53;;;;;;;1.95;1.00;;;;;;;29.49;60.34;101280.72;5279895;27;20107;-74
2023/09/06 10:42:24;;;;;;;1.73;1.00;;;;;;;29.48;60.26;101274.50;5291120;27;20060;-73
2023/09/06 10:44:54;;;;;;;2.05;0.98;;;;;;;29.60;60.43;101277.78;5288337;27;20671;-74
2023/09/06 10:47:33;;;;;;;2.00;1.10;;;;;;;29.62;62.74;101273.06;5291878;27;20035;-74
2023/09/06 10:50:17;;;;;;;1.80;0.80;;;;;;;29.66;60.41;101279.84;5278026;27;20084;-74
2023/09/06 10:52:58;;;;;;;5.28;1.30;;;;;;;29.58;62.79;101280.63;5278208;27;20116;-73
2023/09/06 10:55:43;;;;;;;1.55;0.90;;;;;;;29.51;60.86;101271.50;5293069;27;20102;-73
2023/09/06 10:58:13;;;;;;;2.30;1.17;;;;;;;29.58;64.78;101279.81;5296067;27;20507;-74
2023/09/06 11:00:43;;;;;;;4.60;1.20;;;;;;;29.54;62.12;101270.34;5277836;27;20027;-74
2023/09/06 11:03:17;;;;;;;2.78;1.10;;;;;;;29.49;58.67;101278.91;5293623;27;20309;-74
2023/09/06 11:05:52;;;;;;;2.60;1.25;;;;;;;29.31;59.58;101272.69;5276168;27;20050;-74
2023/09/06 11:08:25;;;;;;;1.53;1.07;;;;;;;29.47;61.96;101270.13;5295357;27;20580;-74
2023/09/06 11:11:07;;;;;;;1.98;0.90;;;;;;;29.42;62.68;101271.56;5291304;27;20039;-74
2023/09/06 11:13:39;;;;;;;1.90;0.90;;;;;;;29.45;59.39;101277.50;5290459;27;20296;-74
2023/09/06 11:16:14;;;;;;;2.08;1.05;;;;;;;29.48;62.06;101276.34;5292197;27;20388;-74
2023/09/06 11:18:50;;;;;;;2.15;1.15;;;;;;;29.48;60.31;101276.34;5295315;27;20026;-73
2023/09/06 11:21:23;;;;;;;2.97;0.98;;;;;;;29.37;59.79;101279.28;5277936;28;20055;-74
2023/09/06 11:23:54;;;;;;;1.10;0.70;;;;;;;29.40;60.58;101276.28;5292278;27;20042;-74
2023/09/06 11:26:26;;;;;;;3.55;0.90;;;;;;;29.50;60.58;101279.72;5291965;27;20484;-74
2023/09/06 11:29:03;;;;;;;3.17;1.10;;;;;;;29.46;59.15;101281.91;5285899;27;20103;-74
2023/09/06 11:31:34;;;;;;;1.67;0.90;;;;;;;29.42;57.52;101282.34;5279325;27;20041;-73
2023/09/06 11:34:08;;;;;;;2.03;0.88;;;;;;;29.43;59.83;101278.66;5279228;27;20023;-73
2023/09/06 11:36:39;;;;;;;1.48;0.82;;;;;;;29.41;58.09;101278.78;5291118;27;20030;-74
2023/09/06 11:39:18;;;;;;;1.30;0.82;;;;;;;29.56;60.28;101279.94;5292604;27;20027;-74